This is the latest recevied weather packets stored in our database for station/object DB0SWS-13. If no packets are shown the sender has not sent any weather packets the latest 1 day(s).
| Time | Temp. | Humidity | Pressure | Rain* | Wind** | Luminosity | Snow |
|---|---|---|---|---|---|---|---|
| 1788555147 | 23.33° C | 50% | 1020.6 hPa | - | - | - | - |
| 1788554247 | 23.89° C | 49% | 1020.6 hPa | - | - | - | - |
| 1788553347 | 23.89° C | 49% | 1020.5 hPa | - | - | - | - |
| 1788552447 | 24.44° C | 48% | 1020.4 hPa | - | - | - | - |
| 1788551547 | 25° C | 47% | 1020.3 hPa | - | - | - | - |
| 1788550646 | 25° C | 44% | 1020.3 hPa | - | - | - | - |
| 1788549746 | 25.56° C | 44% | 1020.1 hPa | - | - | - | - |
| 1788548846 | 26.11° C | 44% | 1020 hPa | - | - | - | - |
| 1788547946 | 26.67° C | 43% | 1019.8 hPa | - | - | - | - |
| 1788547046 | 27.22° C | 42% | 1019.6 hPa | - | - | - | - |
| 1788546146 | 27.78° C | 41% | 1019.3 hPa | - | - | - | - |
| 1788545246 | 27.78° C | 40% | 1019.2 hPa | - | - | - | - |
| 1788544346 | 28.33° C | 39% | 1018.9 hPa | - | - | - | - |
| 1788543445 | 28.89° C | 38% | 1018.9 hPa | - | - | - | - |
| 1788542545 | 30° C | 35% | 1018.8 hPa | - | - | - | - |
| 1788541648 | 32.78° C | 30% | 1018.9 hPa | - | - | - | - |
| 1788540748 | 31.67° C | 31% | 1018.9 hPa | - | - | - | - |
| 1788539848 | 33.89° C | 29% | 1019 hPa | - | - | - | - |
| 1788538947 | 32.78° C | 31% | 1018.9 hPa | - | - | - | - |
| 1788538047 | 32.22° C | 32% | 1019 hPa | - | - | - | - |
| 1788537147 | 32.22° C | 32% | 1019 hPa | - | - | - | - |
* Rain since midnight (hover to see other rain measurements)
** Current wind speed in m/s (hover to see current wind gust speed)